sensor_id;sensor_type;location;lat;lon;timestamp;temperature;humidity
64858;SHT30;51335;51.148;6.950;2022-08-07T00:00:11;12.34;82.29
64858;SHT30;51335;51.148;6.950;2022-08-07T00:00:42;12.36;82.33
64858;SHT30;51335;51.148;6.950;2022-08-07T00:01:12;12.37;82.41
64858;SHT30;51335;51.148;6.950;2022-08-07T00:01:42;12.36;82.41
64858;SHT30;51335;51.148;6.950;2022-08-07T00:02:13;12.36;82.35
64858;SHT30;51335;51.148;6.950;2022-08-07T00:02:43;12.33;82.12
64858;SHT30;51335;51.148;6.950;2022-08-07T00:03:13;12.33;81.99
64858;SHT30;51335;51.148;6.950;2022-08-07T00:03:44;12.29;81.97
64858;SHT30;51335;51.148;6.950;2022-08-07T00:04:14;12.26;82.04
64858;SHT30;51335;51.148;6.950;2022-08-07T00:04:44;12.23;82.22
64858;SHT30;51335;51.148;6.950;2022-08-07T00:05:15;12.17;82.41
64858;SHT30;51335;51.148;6.950;2022-08-07T00:05:45;12.17;82.34
64858;SHT30;51335;51.148;6.950;2022-08-07T00:06:15;12.13;82.35
64858;SHT30;51335;51.148;6.950;2022-08-07T00:06:46;12.09;82.38
64858;SHT30;51335;51.148;6.950;2022-08-07T00:07:16;12.10;82.50
64858;SHT30;51335;51.148;6.950;2022-08-07T00:07:46;12.09;82.61
64858;SHT30;51335;51.148;6.950;2022-08-07T00:08:17;12.04;83.06
64858;SHT30;51335;51.148;6.950;2022-08-07T00:08:47;12.00;83.07
64858;SHT30;51335;51.148;6.950;2022-08-07T00:09:21;12.00;83.23
64858;SHT30;51335;51.148;6.950;2022-08-07T00:09:51;11.96;83.43
64858;SHT30;51335;51.148;6.950;2022-08-07T00:10:31;11.90;83.66
64858;SHT30;51335;51.148;6.950;2022-08-07T00:11:03;11.86;83.81
64858;SHT30;51335;51.148;6.950;2022-08-07T00:11:33;11.86;83.94
64858;SHT30;51335;51.148;6.950;2022-08-07T00:12:04;11.85;84.05
64858;SHT30;51335;51.148;6.950;2022-08-07T00:12:34;11.81;84.39
64858;SHT30;51335;51.148;6.950;2022-08-07T00:13:05;11.78;84.74
64858;SHT30;51335;51.148;6.950;2022-08-07T00:13:35;11.76;84.64
64858;SHT30;51335;51.148;6.950;2022-08-07T00:14:05;11.71;84.69
64858;SHT30;51335;51.148;6.950;2022-08-07T00:14:36;11.72;85.06
64858;SHT30;51335;51.148;6.950;2022-08-07T00:15:09;11.68;84.96
64858;SHT30;51335;51.148;6.950;2022-08-07T00:15:40;11.66;85.49
64858;SHT30;51335;51.148;6.950;2022-08-07T00:16:11;11.62;85.38
64858;SHT30;51335;51.148;6.950;2022-08-07T00:16:41;11.64;85.33
64858;SHT30;51335;51.148;6.950;2022-08-07T00:17:12;11.64;85.40
64858;SHT30;51335;51.148;6.950;2022-08-07T00:17:42;11.66;85.47
64858;SHT30;51335;51.148;6.950;2022-08-07T00:18:17;11.69;85.50
64858;SHT30;51335;51.148;6.950;2022-08-07T00:18:48;11.68;85.54
64858;SHT30;51335;51.148;6.950;2022-08-07T00:19:18;11.69;85.45
64858;SHT30;51335;51.148;6.950;2022-08-07T00:19:48;11.69;85.42
64858;SHT30;51335;51.148;6.950;2022-08-07T00:20:21;11.72;85.46
64858;SHT30;51335;51.148;6.950;2022-08-07T00:20:57;11.71;85.26
64858;SHT30;51335;51.148;6.950;2022-08-07T00:21:27;11.72;85.09
64858;SHT30;51335;51.148;6.950;2022-08-07T00:21:57;11.75;84.88
64858;SHT30;51335;51.148;6.950;2022-08-07T00:22:28;11.73;84.71
64858;SHT30;51335;51.148;6.950;2022-08-07T00:22:58;11.73;84.62
64858;SHT30;51335;51.148;6.950;2022-08-07T00:23:30;11.72;84.57
64858;SHT30;51335;51.148;6.950;2022-08-07T00:24:00;11.71;84.57
64858;SHT30;51335;51.148;6.950;2022-08-07T00:24:30;11.68;84.56
64858;SHT30;51335;51.148;6.950;2022-08-07T00:25:03;11.71;84.55
64858;SHT30;51335;51.148;6.950;2022-08-07T00:25:35;11.66;84.73
64858;SHT30;51335;51.148;6.950;2022-08-07T00:26:08;11.65;84.84
64858;SHT30;51335;51.148;6.950;2022-08-07T00:26:39;11.61;85.07
64858;SHT30;51335;51.148;6.950;2022-08-07T00:27:09;11.61;85.02
64858;SHT30;51335;51.148;6.950;2022-08-07T00:27:39;11.55;85.04
64858;SHT30;51335;51.148;6.950;2022-08-07T00:28:09;11.54;85.15
64858;SHT30;51335;51.148;6.950;2022-08-07T00:28:40;11.54;85.38
64858;SHT30;51335;51.148;6.950;2022-08-07T00:29:10;11.58;85.47
64858;SHT30;51335;51.148;6.950;2022-08-07T00:29:40;11.58;85.56
64858;SHT30;51335;51.148;6.950;2022-08-07T00:30:12;11.55;85.70
64858;SHT30;51335;51.148;6.950;2022-08-07T00:30:42;11.55;86.17
64858;SHT30;51335;51.148;6.950;2022-08-07T00:31:12;11.52;86.07
64858;SHT30;51335;51.148;6.950;2022-08-07T00:31:43;11.50;86.05
64858;SHT30;51335;51.148;6.950;2022-08-07T00:32:14;11.50;86.13
64858;SHT30;51335;51.148;6.950;2022-08-07T00:32:48;11.48;86.17
64858;SHT30;51335;51.148;6.950;2022-08-07T00:33:18;11.46;86.18
64858;SHT30;51335;51.148;6.950;2022-08-07T00:33:48;11.42;86.19
64858;SHT30;51335;51.148;6.950;2022-08-07T00:34:19;11.39;86.31
64858;SHT30;51335;51.148;6.950;2022-08-07T00:34:50;11.38;86.38
64858;SHT30;51335;51.148;6.950;2022-08-07T00:35:20;11.37;86.43
64858;SHT30;51335;51.148;6.950;2022-08-07T00:35:52;11.34;86.45
64858;SHT30;51335;51.148;6.950;2022-08-07T00:36:22;11.34;86.57
64858;SHT30;51335;51.148;6.950;2022-08-07T00:36:53;11.32;86.61
64858;SHT30;51335;51.148;6.950;2022-08-07T00:37:23;11.31;86.75
64858;SHT30;51335;51.148;6.950;2022-08-07T00:37:54;11.31;86.94
64858;SHT30;51335;51.148;6.950;2022-08-07T00:38:24;11.34;86.85
64858;SHT30;51335;51.148;6.950;2022-08-07T00:38:56;11.32;86.88
64858;SHT30;51335;51.148;6.950;2022-08-07T00:39:27;11.32;86.84
64858;SHT30;51335;51.148;6.950;2022-08-07T00:39:57;11.31;86.96
64858;SHT30;51335;51.148;6.950;2022-08-07T00:40:31;11.30;86.79
64858;SHT30;51335;51.148;6.950;2022-08-07T00:41:03;11.28;86.81
64858;SHT30;51335;51.148;6.950;2022-08-07T00:41:33;11.27;86.93
64858;SHT30;51335;51.148;6.950;2022-08-07T00:42:04;11.25;87.01
64858;SHT30;51335;51.148;6.950;2022-08-07T00:42:34;11.24;87.02
64858;SHT30;51335;51.148;6.950;2022-08-07T00:43:05;11.21;87.02
64858;SHT30;51335;51.148;6.950;2022-08-07T00:43:36;11.23;87.11
64858;SHT30;51335;51.148;6.950;2022-08-07T00:44:06;11.18;87.21
64858;SHT30;51335;51.148;6.950;2022-08-07T00:44:37;11.18;87.24
64858;SHT30;51335;51.148;6.950;2022-08-07T00:45:08;11.17;87.34
64858;SHT30;51335;51.148;6.950;2022-08-07T00:45:39;11.18;87.30
64858;SHT30;51335;51.148;6.950;2022-08-07T00:46:09;11.18;87.28
64858;SHT30;51335;51.148;6.950;2022-08-07T00:46:40;11.17;87.24
64858;SHT30;51335;51.148;6.950;2022-08-07T00:47:10;11.16;87.21
64858;SHT30;51335;51.148;6.950;2022-08-07T00:47:40;11.20;87.21
64858;SHT30;51335;51.148;6.950;2022-08-07T00:48:11;11.17;87.23
64858;SHT30;51335;51.148;6.950;2022-08-07T00:48:41;11.17;87.21
64858;SHT30;51335;51.148;6.950;2022-08-07T00:49:12;11.17;87.22
64858;SHT30;51335;51.148;6.950;2022-08-07T00:49:42;11.17;87.18
64858;SHT30;51335;51.148;6.950;2022-08-07T00:50:13;11.16;87.16
64858;SHT30;51335;51.148;6.950;2022-08-07T00:50:44;11.16;87.12
64858;SHT30;51335;51.148;6.950;2022-08-07T00:51:14;11.14;87.17
64858;SHT30;51335;51.148;6.950;2022-08-07T00:51:45;11.16;87.15
64858;SHT30;51335;51.148;6.950;2022-08-07T00:52:15;11.13;87.17
64858;SHT30;51335;51.148;6.950;2022-08-07T00:52:46;11.10;87.15
64858;SHT30;51335;51.148;6.950;2022-08-07T00:53:16;11.08;87.16
64858;SHT30;51335;51.148;6.950;2022-08-07T00:53:46;11.08;87.31
64858;SHT30;51335;51.148;6.950;2022-08-07T00:54:17;11.10;87.33
64858;SHT30;51335;51.148;6.950;2022-08-07T00:54:48;11.08;87.41
64858;SHT30;51335;51.148;6.950;2022-08-07T00:55:18;11.07;87.54
64858;SHT30;51335;51.148;6.950;2022-08-07T00:55:49;11.07;87.58
64858;SHT30;51335;51.148;6.950;2022-08-07T00:56:21;11.07;87.55
64858;SHT30;51335;51.148;6.950;2022-08-07T00:56:51;11.08;87.51
64858;SHT30;51335;51.148;6.950;2022-08-07T00:57:23;11.08;87.57
64858;SHT30;51335;51.148;6.950;2022-08-07T00:57:53;11.07;87.68
64858;SHT30;51335;51.148;6.950;2022-08-07T00:58:24;11.07;87.83
64858;SHT30;51335;51.148;6.950;2022-08-07T00:58:54;11.06;87.86
64858;SHT30;51335;51.148;6.950;2022-08-07T00:59:25;11.07;87.81
64858;SHT30;51335;51.148;6.950;2022-08-07T00:59:55;11.03;87.72
64858;SHT30;51335;51.148;6.950;2022-08-07T01:00:35;11.04;87.75
64858;SHT30;51335;51.148;6.950;2022-08-07T01:01:06;11.04;87.84
64858;SHT30;51335;51.148;6.950;2022-08-07T01:01:36;11.04;87.78
64858;SHT30;51335;51.148;6.950;2022-08-07T01:02:08;11.03;87.76
64858;SHT30;51335;51.148;6.950;2022-08-07T01:02:39;11.04;87.74
64858;SHT30;51335;51.148;6.950;2022-08-07T01:03:09;11.01;87.81
64858;SHT30;51335;51.148;6.950;2022-08-07T01:03:39;11.01;87.81
64858;SHT30;51335;51.148;6.950;2022-08-07T01:04:10;11.01;88.00
64858;SHT30;51335;51.148;6.950;2022-08-07T01:04:40;10.99;87.92
64858;SHT30;51335;51.148;6.950;2022-08-07T01:05:12;10.99;87.88
64858;SHT30;51335;51.148;6.950;2022-08-07T01:05:43;10.97;87.89
64858;SHT30;51335;51.148;6.950;2022-08-07T01:06:14;10.97;87.97
64858;SHT30;51335;51.148;6.950;2022-08-07T01:06:45;10.97;87.92
64858;SHT30;51335;51.148;6.950;2022-08-07T01:07:15;10.95;87.94
64858;SHT30;51335;51.148;6.950;2022-08-07T01:07:48;10.97;87.96
64858;SHT30;51335;51.148;6.950;2022-08-07T01:08:18;10.96;88.03
64858;SHT30;51335;51.148;6.950;2022-08-07T01:08:48;10.96;88.05
64858;SHT30;51335;51.148;6.950;2022-08-07T01:09:19;10.97;88.01
64858;SHT30;51335;51.148;6.950;2022-08-07T01:09:49;10.96;88.04
64858;SHT30;51335;51.148;6.950;2022-08-07T01:10:20;10.97;88.11
64858;SHT30;51335;51.148;6.950;2022-08-07T01:10:51;10.96;88.14
64858;SHT30;51335;51.148;6.950;2022-08-07T01:11:22;10.95;88.20
64858;SHT30;51335;51.148;6.950;2022-08-07T01:11:52;11.00;88.32
64858;SHT30;51335;51.148;6.950;2022-08-07T01:12:23;10.97;88.25
64858;SHT30;51335;51.148;6.950;2022-08-07T01:12:53;10.97;88.17
64858;SHT30;51335;51.148;6.950;2022-08-07T01:13:24;10.95;88.20
64858;SHT30;51335;51.148;6.950;2022-08-07T01:13:55;10.92;88.27
64858;SHT30;51335;51.148;6.950;2022-08-07T01:14:25;10.90;88.34
64858;SHT30;51335;51.148;6.950;2022-08-07T01:14:56;10.92;88.46
64858;SHT30;51335;51.148;6.950;2022-08-07T01:15:26;10.87;88.54
64858;SHT30;51335;51.148;6.950;2022-08-07T01:15:58;10.89;88.60
64858;SHT30;51335;51.148;6.950;2022-08-07T01:16:29;10.87;88.65
64858;SHT30;51335;51.148;6.950;2022-08-07T01:16:59;10.89;88.85
64858;SHT30;51335;51.148;6.950;2022-08-07T01:17:30;10.87;88.85
64858;SHT30;51335;51.148;6.950;2022-08-07T01:18:01;10.87;88.86
64858;SHT30;51335;51.148;6.950;2022-08-07T01:18:31;10.89;88.84
64858;SHT30;51335;51.148;6.950;2022-08-07T01:19:04;10.86;88.84
64858;SHT30;51335;51.148;6.950;2022-08-07T01:19:35;10.81;89.09
64858;SHT30;51335;51.148;6.950;2022-08-07T01:20:09;10.80;89.03
64858;SHT30;51335;51.148;6.950;2022-08-07T01:20:45;10.80;89.09
64858;SHT30;51335;51.148;6.950;2022-08-07T01:21:18;10.79;89.01
64858;SHT30;51335;51.148;6.950;2022-08-07T01:21:51;10.77;88.94
64858;SHT30;51335;51.148;6.950;2022-08-07T01:22:21;10.77;88.96
64858;SHT30;51335;51.148;6.950;2022-08-07T01:22:52;10.75;88.97
64858;SHT30;51335;51.148;6.950;2022-08-07T01:23:23;10.76;88.94
64858;SHT30;51335;51.148;6.950;2022-08-07T01:23:56;10.76;88.96
64858;SHT30;51335;51.148;6.950;2022-08-07T01:24:27;10.73;89.00
64858;SHT30;51335;51.148;6.950;2022-08-07T01:24:58;10.72;89.03
64858;SHT30;51335;51.148;6.950;2022-08-07T01:25:28;10.72;89.07
64858;SHT30;51335;51.148;6.950;2022-08-07T01:25:59;10.72;89.13
64858;SHT30;51335;51.148;6.950;2022-08-07T01:26:30;10.73;89.06
64858;SHT30;51335;51.148;6.950;2022-08-07T01:27:01;10.69;89.03
64858;SHT30;51335;51.148;6.950;2022-08-07T01:27:31;10.69;89.00
64858;SHT30;51335;51.148;6.950;2022-08-07T01:28:01;10.69;88.96
64858;SHT30;51335;51.148;6.950;2022-08-07T01:28:32;10.67;88.90
64858;SHT30;51335;51.148;6.950;2022-08-07T01:29:03;10.73;88.88
64858;SHT30;51335;51.148;6.950;2022-08-07T01:29:33;10.73;88.88
64858;SHT30;51335;51.148;6.950;2022-08-07T01:30:05;10.70;88.96
64858;SHT30;51335;51.148;6.950;2022-08-07T01:30:36;10.70;89.07
64858;SHT30;51335;51.148;6.950;2022-08-07T01:31:08;10.72;89.18
64858;SHT30;51335;51.148;6.950;2022-08-07T01:31:39;10.72;89.31
64858;SHT30;51335;51.148;6.950;2022-08-07T01:32:09;10.70;89.41
64858;SHT30;51335;51.148;6.950;2022-08-07T01:32:39;10.72;89.42
64858;SHT30;51335;51.148;6.950;2022-08-07T01:33:10;10.70;89.44
64858;SHT30;51335;51.148;6.950;2022-08-07T01:33:41;10.70;89.47
64858;SHT30;51335;51.148;6.950;2022-08-07T01:34:11;10.69;89.52
64858;SHT30;51335;51.148;6.950;2022-08-07T01:34:42;10.70;89.57
64858;SHT30;51335;51.148;6.950;2022-08-07T01:35:12;10.69;89.65
64858;SHT30;51335;51.148;6.950;2022-08-07T01:35:43;10.67;89.65
64858;SHT30;51335;51.148;6.950;2022-08-07T01:36:13;10.67;89.66
64858;SHT30;51335;51.148;6.950;2022-08-07T01:36:44;10.69;89.68
64858;SHT30;51335;51.148;6.950;2022-08-07T01:37:15;10.67;89.73
64858;SHT30;51335;51.148;6.950;2022-08-07T01:37:46;10.67;89.72
64858;SHT30;51335;51.148;6.950;2022-08-07T01:38:17;10.69;89.60
64858;SHT30;51335;51.148;6.950;2022-08-07T01:38:47;10.67;89.54
64858;SHT30;51335;51.148;6.950;2022-08-07T01:39:17;10.67;89.50
64858;SHT30;51335;51.148;6.950;2022-08-07T01:39:48;10.67;89.47
64858;SHT30;51335;51.148;6.950;2022-08-07T01:40:20;10.69;89.41
64858;SHT30;51335;51.148;6.950;2022-08-07T01:41:02;10.65;89.34
64858;SHT30;51335;51.148;6.950;2022-08-07T01:41:33;10.66;89.37
64858;SHT30;51335;51.148;6.950;2022-08-07T01:42:04;10.65;89.44
64858;SHT30;51335;51.148;6.950;2022-08-07T01:42:35;10.65;89.47
64858;SHT30;51335;51.148;6.950;2022-08-07T01:43:06;10.63;89.41
64858;SHT30;51335;51.148;6.950;2022-08-07T01:43:37;10.63;89.43
64858;SHT30;51335;51.148;6.950;2022-08-07T01:44:08;10.63;89.50
64858;SHT30;51335;51.148;6.950;2022-08-07T01:44:39;10.63;89.46
64858;SHT30;51335;51.148;6.950;2022-08-07T01:45:10;10.62;89.40
64858;SHT30;51335;51.148;6.950;2022-08-07T01:45:41;10.60;89.41
64858;SHT30;51335;51.148;6.950;2022-08-07T01:46:13;10.63;89.52
64858;SHT30;51335;51.148;6.950;2022-08-07T01:46:43;10.66;89.46
64858;SHT30;51335;51.148;6.950;2022-08-07T01:47:14;10.65;89.45
64858;SHT30;51335;51.148;6.950;2022-08-07T01:47:44;10.66;89.41
64858;SHT30;51335;51.148;6.950;2022-08-07T01:48:15;10.66;89.41
64858;SHT30;51335;51.148;6.950;2022-08-07T01:48:47;10.67;89.41
64858;SHT30;51335;51.148;6.950;2022-08-07T01:49:17;10.66;89.33
64858;SHT30;51335;51.148;6.950;2022-08-07T01:49:48;10.65;89.34
64858;SHT30;51335;51.148;6.950;2022-08-07T01:50:22;10.66;89.47
64858;SHT30;51335;51.148;6.950;2022-08-07T01:50:56;10.66;89.52
64858;SHT30;51335;51.148;6.950;2022-08-07T01:51:28;10.65;89.57
64858;SHT30;51335;51.148;6.950;2022-08-07T01:52:01;10.66;89.52
64858;SHT30;51335;51.148;6.950;2022-08-07T01:52:33;10.67;89.45
64858;SHT30;51335;51.148;6.950;2022-08-07T01:53:05;10.69;89.38
64858;SHT30;51335;51.148;6.950;2022-08-07T01:53:38;10.69;89.41
64858;SHT30;51335;51.148;6.950;2022-08-07T01:54:12;10.66;89.33
64858;SHT30;51335;51.148;6.950;2022-08-07T01:54:43;10.66;89.31
64858;SHT30;51335;51.148;6.950;2022-08-07T01:55:15;10.63;89.58
64858;SHT30;51335;51.148;6.950;2022-08-07T01:55:48;10.59;89.65
64858;SHT30;51335;51.148;6.950;2022-08-07T01:56:28;10.56;89.59
64858;SHT30;51335;51.148;6.950;2022-08-07T01:57:27;10.56;89.93
64858;SHT30;51335;51.148;6.950;2022-08-07T01:57:59;10.55;90.15
64858;SHT30;51335;51.148;6.950;2022-08-07T01:58:33;10.52;90.21
64858;SHT30;51335;51.148;6.950;2022-08-07T01:59:39;10.46;90.08
64858;SHT30;51335;51.148;6.950;2022-08-07T02:00:12;10.53;90.10
64858;SHT30;51335;51.148;6.950;2022-08-07T02:00:43;10.50;90.26
64858;SHT30;51335;51.148;6.950;2022-08-07T02:01:23;10.48;90.13
64858;SHT30;51335;51.148;6.950;2022-08-07T02:02:06;10.48;90.13
64858;SHT30;51335;51.148;6.950;2022-08-07T02:02:52;10.45;90.18
64858;SHT30;51335;51.148;6.950;2022-08-07T02:03:25;10.44;90.16
64858;SHT30;51335;51.148;6.950;2022-08-07T02:04:14;10.41;90.17
64858;SHT30;51335;51.148;6.950;2022-08-07T02:04:52;10.41;90.19
64858;SHT30;51335;51.148;6.950;2022-08-07T02:06:09;10.35;90.17
64858;SHT30;51335;51.148;6.950;2022-08-07T02:06:42;10.37;90.30
64858;SHT30;51335;51.148;6.950;2022-08-07T02:07:15;10.32;90.41
64858;SHT30;51335;51.148;6.950;2022-08-07T02:07:51;10.34;90.43
64858;SHT30;51335;51.148;6.950;2022-08-07T02:08:24;10.29;90.44
64858;SHT30;51335;51.148;6.950;2022-08-07T02:08:56;10.29;90.41
64858;SHT30;51335;51.148;6.950;2022-08-07T02:09:28;10.25;90.59
64858;SHT30;51335;51.148;6.950;2022-08-07T02:10:00;10.27;90.62
64858;SHT30;51335;51.148;6.950;2022-08-07T02:10:32;10.27;90.60
64858;SHT30;51335;51.148;6.950;2022-08-07T02:11:03;10.24;90.66
64858;SHT30;51335;51.148;6.950;2022-08-07T02:11:37;10.21;90.71
64858;SHT30;51335;51.148;6.950;2022-08-07T02:12:10;10.24;90.71
64858;SHT30;51335;51.148;6.950;2022-08-07T02:12:42;10.21;90.72
64858;SHT30;51335;51.148;6.950;2022-08-07T02:13:15;10.21;90.67
64858;SHT30;51335;51.148;6.950;2022-08-07T02:13:46;10.22;90.71
64858;SHT30;51335;51.148;6.950;2022-08-07T02:14:18;10.24;90.53
64858;SHT30;51335;51.148;6.950;2022-08-07T02:14:52;10.22;90.41
64858;SHT30;51335;51.148;6.950;2022-08-07T02:15:24;10.19;90.37
64858;SHT30;51335;51.148;6.950;2022-08-07T02:15:57;10.18;90.42
64858;SHT30;51335;51.148;6.950;2022-08-07T02:16:29;10.15;90.42
64858;SHT30;51335;51.148;6.950;2022-08-07T02:17:00;10.11;90.50
64858;SHT30;51335;51.148;6.950;2022-08-07T02:17:30;10.12;90.70
64858;SHT30;51335;51.148;6.950;2022-08-07T02:18:02;10.12;90.88
64858;SHT30;51335;51.148;6.950;2022-08-07T02:18:35;10.11;90.85
64858;SHT30;51335;51.148;6.950;2022-08-07T02:19:09;10.10;90.87
64858;SHT30;51335;51.148;6.950;2022-08-07T02:19:42;10.10;90.79
64858;SHT30;51335;51.148;6.950;2022-08-07T02:20:18;10.07;90.74
64858;SHT30;51335;51.148;6.950;2022-08-07T02:20:50;10.08;90.78
64858;SHT30;51335;51.148;6.950;2022-08-07T02:21:22;10.08;90.81
64858;SHT30;51335;51.148;6.950;2022-08-07T02:21:54;10.05;90.92
64858;SHT30;51335;51.148;6.950;2022-08-07T02:22:25;10.04;90.96
64858;SHT30;51335;51.148;6.950;2022-08-07T02:22:58;10.05;91.09
64858;SHT30;51335;51.148;6.950;2022-08-07T02:23:33;10.02;91.14
64858;SHT30;51335;51.148;6.950;2022-08-07T02:24:05;10.04;91.17
64858;SHT30;51335;51.148;6.950;2022-08-07T02:24:35;10.02;91.19
64858;SHT30;51335;51.148;6.950;2022-08-07T02:25:10;10.02;91.19
64858;SHT30;51335;51.148;6.950;2022-08-07T02:25:43;10.04;91.21
64858;SHT30;51335;51.148;6.950;2022-08-07T02:26:14;10.05;91.31
64858;SHT30;51335;51.148;6.950;2022-08-07T02:26:45;10.02;91.32
64858;SHT30;51335;51.148;6.950;2022-08-07T02:27:18;10.04;91.23
64858;SHT30;51335;51.148;6.950;2022-08-07T02:27:49;10.01;91.17
64858;SHT30;51335;51.148;6.950;2022-08-07T02:28:21;10.01;91.11
64858;SHT30;51335;51.148;6.950;2022-08-07T02:28:52;10.00;91.08
64858;SHT30;51335;51.148;6.950;2022-08-07T02:29:23;9.98;91.12
64858;SHT30;51335;51.148;6.950;2022-08-07T02:29:54;10.01;91.17
64858;SHT30;51335;51.148;6.950;2022-08-07T02:30:27;9.98;91.52
64858;SHT30;51335;51.148;6.950;2022-08-07T02:31:00;10.00;91.31
64858;SHT30;51335;51.148;6.950;2022-08-07T02:31:32;9.98;91.28
64858;SHT30;51335;51.148;6.950;2022-08-07T02:32:03;9.97;91.38
64858;SHT30;51335;51.148;6.950;2022-08-07T02:32:34;9.95;91.49
64858;SHT30;51335;51.148;6.950;2022-08-07T02:33:06;9.98;91.41
64858;SHT30;51335;51.148;6.950;2022-08-07T02:33:38;9.98;91.52
64858;SHT30;51335;51.148;6.950;2022-08-07T02:34:10;9.98;91.50
64858;SHT30;51335;51.148;6.950;2022-08-07T02:34:41;10.00;91.45
64858;SHT30;51335;51.148;6.950;2022-08-07T02:35:13;9.97;91.36
64858;SHT30;51335;51.148;6.950;2022-08-07T02:35:44;9.97;91.37
64858;SHT30;51335;51.148;6.950;2022-08-07T02:36:16;9.95;91.30
64858;SHT30;51335;51.148;6.950;2022-08-07T02:36:48;9.94;91.29
64858;SHT30;51335;51.148;6.950;2022-08-07T02:37:19;9.94;91.35
64858;SHT30;51335;51.148;6.950;2022-08-07T02:37:51;9.95;91.44
64858;SHT30;51335;51.148;6.950;2022-08-07T02:38:25;9.94;91.54
64858;SHT30;51335;51.148;6.950;2022-08-07T02:38:56;9.94;91.64
64858;SHT30;51335;51.148;6.950;2022-08-07T02:39:27;9.93;91.60
64858;SHT30;51335;51.148;6.950;2022-08-07T02:39:59;9.93;91.63
64858;SHT30;51335;51.148;6.950;2022-08-07T02:40:31;9.93;91.61
64858;SHT30;51335;51.148;6.950;2022-08-07T02:41:03;9.91;91.57
64858;SHT30;51335;51.148;6.950;2022-08-07T02:41:34;9.91;91.61
64858;SHT30;51335;51.148;6.950;2022-08-07T02:42:05;9.93;91.63
64858;SHT30;51335;51.148;6.950;2022-08-07T02:42:38;9.91;91.66
64858;SHT30;51335;51.148;6.950;2022-08-07T02:43:08;9.88;92.07
64858;SHT30;51335;51.148;6.950;2022-08-07T02:43:40;9.93;92.01
64858;SHT30;51335;51.148;6.950;2022-08-07T02:44:12;9.93;92.02
64858;SHT30;51335;51.148;6.950;2022-08-07T02:44:44;9.93;92.00
64858;SHT30;51335;51.148;6.950;2022-08-07T02:45:16;9.91;92.05
64858;SHT30;51335;51.148;6.950;2022-08-07T02:45:48;9.90;91.98
64858;SHT30;51335;51.148;6.950;2022-08-07T02:46:21;9.91;91.97
64858;SHT30;51335;51.148;6.950;2022-08-07T02:46:53;9.86;91.99
64858;SHT30;51335;51.148;6.950;2022-08-07T02:47:25;9.88;92.05
64858;SHT30;51335;51.148;6.950;2022-08-07T02:47:56;9.91;92.99
64858;SHT30;51335;51.148;6.950;2022-08-07T02:48:26;9.90;92.61
64858;SHT30;51335;51.148;6.950;2022-08-07T02:48:56;9.91;92.53
64858;SHT30;51335;51.148;6.950;2022-08-07T02:49:28;9.88;92.52
64858;SHT30;51335;51.148;6.950;2022-08-07T02:49:59;9.91;92.56
64858;SHT30;51335;51.148;6.950;2022-08-07T02:50:33;9.93;92.76
64858;SHT30;51335;51.148;6.950;2022-08-07T02:51:09;9.93;92.79
64858;SHT30;51335;51.148;6.950;2022-08-07T02:51:41;9.90;92.79
64858;SHT30;51335;51.148;6.950;2022-08-07T02:52:18;9.93;92.76
64858;SHT30;51335;51.148;6.950;2022-08-07T02:52:53;9.93;92.81
64858;SHT30;51335;51.148;6.950;2022-08-07T02:53:30;9.95;92.72
64858;SHT30;51335;51.148;6.950;2022-08-07T02:54:01;9.95;92.76
64858;SHT30;51335;51.148;6.950;2022-08-07T02:54:36;9.94;92.73
64858;SHT30;51335;51.148;6.950;2022-08-07T02:55:14;9.95;92.72
64858;SHT30;51335;51.148;6.950;2022-08-07T02:55:46;9.95;92.73
64858;SHT30;51335;51.148;6.950;2022-08-07T02:56:17;9.95;92.75
64858;SHT30;51335;51.148;6.950;2022-08-07T02:56:48;9.95;92.73
64858;SHT30;51335;51.148;6.950;2022-08-07T02:57:20;9.91;92.69
64858;SHT30;51335;51.148;6.950;2022-08-07T02:57:52;9.91;92.64
64858;SHT30;51335;51.148;6.950;2022-08-07T02:58:23;9.87;92.58
64858;SHT30;51335;51.148;6.950;2022-08-07T02:58:54;9.88;92.49
64858;SHT30;51335;51.148;6.950;2022-08-07T02:59:27;9.86;92.52
64858;SHT30;51335;51.148;6.950;2022-08-07T02:59:59;9.84;92.47
64858;SHT30;51335;51.148;6.950;2022-08-07T03:00:33;9.81;92.46
64858;SHT30;51335;51.148;6.950;2022-08-07T03:01:04;9.81;92.49
64858;SHT30;51335;51.148;6.950;2022-08-07T03:01:37;9.79;92.50
64858;SHT30;51335;51.148;6.950;2022-08-07T03:02:08;9.80;92.50
64858;SHT30;51335;51.148;6.950;2022-08-07T03:02:40;9.79;92.60
64858;SHT30;51335;51.148;6.950;2022-08-07T03:03:12;9.79;92.54
64858;SHT30;51335;51.148;6.950;2022-08-07T03:03:45;9.79;92.55
64858;SHT30;51335;51.148;6.950;2022-08-07T03:04:17;9.81;92.55
64858;SHT30;51335;51.148;6.950;2022-08-07T03:04:48;9.81;92.52
64858;SHT30;51335;51.148;6.950;2022-08-07T03:05:23;9.80;92.54
64858;SHT30;51335;51.148;6.950;2022-08-07T03:05:54;9.76;92.53
64858;SHT30;51335;51.148;6.950;2022-08-07T03:06:26;9.76;92.61
64858;SHT30;51335;51.148;6.950;2022-08-07T03:06:58;9.81;92.81
64858;SHT30;51335;51.148;6.950;2022-08-07T03:07:29;9.83;92.96
64858;SHT30;51335;51.148;6.950;2022-08-07T03:08:00;9.84;92.99
64858;SHT30;51335;51.148;6.950;2022-08-07T03:08:32;9.83;93.01
64858;SHT30;51335;51.148;6.950;2022-08-07T03:09:13;9.83;93.02
64858;SHT30;51335;51.148;6.950;2022-08-07T03:09:43;9.86;93.08
64858;SHT30;51335;51.148;6.950;2022-08-07T03:10:16;9.84;93.09
64858;SHT30;51335;51.148;6.950;2022-08-07T03:10:46;9.86;93.09
64858;SHT30;51335;51.148;6.950;2022-08-07T03:11:17;9.84;93.16
64858;SHT30;51335;51.148;6.950;2022-08-07T03:11:49;9.84;93.21
64858;SHT30;51335;51.148;6.950;2022-08-07T03:12:20;9.86;93.26
64858;SHT30;51335;51.148;6.950;2022-08-07T03:12:51;9.81;93.21
64858;SHT30;51335;51.148;6.950;2022-08-07T03:13:22;9.86;93.24
64858;SHT30;51335;51.148;6.950;2022-08-07T03:13:53;9.87;93.41
64858;SHT30;51335;51.148;6.950;2022-08-07T03:14:25;9.91;93.31
64858;SHT30;51335;51.148;6.950;2022-08-07T03:14:56;9.90;93.24
64858;SHT30;51335;51.148;6.950;2022-08-07T03:15:27;9.91;93.26
64858;SHT30;51335;51.148;6.950;2022-08-07T03:15:58;9.91;93.27
64858;SHT30;51335;51.148;6.950;2022-08-07T03:16:29;9.87;93.31
64858;SHT30;51335;51.148;6.950;2022-08-07T03:17:00;9.86;93.28
64858;SHT30;51335;51.148;6.950;2022-08-07T03:17:31;9.83;93.26
64858;SHT30;51335;51.148;6.950;2022-08-07T03:18:02;9.79;93.29
64858;SHT30;51335;51.148;6.950;2022-08-07T03:18:32;9.77;93.37
64858;SHT30;51335;51.148;6.950;2022-08-07T03:19:03;9.73;93.42
64858;SHT30;51335;51.148;6.950;2022-08-07T03:19:34;9.76;93.41
64858;SHT30;51335;51.148;6.950;2022-08-07T03:20:05;9.76;93.44
64858;SHT30;51335;51.148;6.950;2022-08-07T03:20:38;9.77;93.33
64858;SHT30;51335;51.148;6.950;2022-08-07T03:21:08;9.71;93.31
64858;SHT30;51335;51.148;6.950;2022-08-07T03:21:39;9.69;93.52
64858;SHT30;51335;51.148;6.950;2022-08-07T03:22:10;9.69;93.47
64858;SHT30;51335;51.148;6.950;2022-08-07T03:22:41;9.64;93.45